Time;durP1;ratioP1;P1;durP2;ratioP2;P2;SDS_P1;SDS_P2;PMS_P1;PMS_P2;Temp;Humidity;BMP_temperature;BMP_pressure;BME280_temperature;BME280_humidity;BME280_pressure;Samples;Min_cycle;Max_cycle;Signal;HPM_P1;HPM_P2
2021/01/06 00:01:18;;;;;;;13.02;8.20;;;;;;;2.65;100.00;100511.44;4944030;28;20097;-54
2021/01/06 00:03:46;;;;;;;15.63;8.38;;;;;;;2.57;100.00;100510.16;4945454;28;20056;-49
2021/01/06 00:06:14;;;;;;;14.30;7.97;;;;;;;2.46;100.00;100503.66;4943998;28;20055;-54
2021/01/06 00:08:43;;;;;;;15.50;8.63;;;;;;;2.59;100.00;100506.06;4944052;28;20048;-50
2021/01/06 00:11:10;;;;;;;15.98;8.15;;;;;;;2.30;100.00;100502.78;4945734;28;20501;-52
2021/01/06 00:13:36;;;;;;;14.52;7.68;;;;;;;2.44;100.00;100501.00;4943787;28;20054;-55
2021/01/06 00:16:04;;;;;;;15.98;7.65;;;;;;;2.38;100.00;100499.81;4948018;28;20054;-51
2021/01/06 00:18:31;;;;;;;14.27;7.85;;;;;;;2.42;100.00;100499.22;4942142;28;20140;-54
2021/01/06 00:20:58;;;;;;;15.77;7.22;;;;;;;2.33;100.00;100499.56;4945707;28;20054;-50
2021/01/06 00:23:24;;;;;;;12.40;7.13;;;;;;;2.35;100.00;100489.53;4942886;28;20101;-48
2021/01/06 00:25:51;;;;;;;13.40;7.53;;;;;;;2.58;100.00;100498.38;4946369;28;20054;-51
2021/01/06 00:28:21;;;;;;;12.35;7.53;;;;;;;2.72;100.00;100488.22;4943583;28;20059;-46
2021/01/06 00:30:57;;;;;;;14.50;7.35;;;;;;;2.66;100.00;100497.16;4940647;28;20050;-50
2021/01/06 00:33:29;;;;;;;13.55;8.20;;;;;;;2.76;100.00;100496.84;4948443;28;20062;-50
2021/01/06 00:35:59;;;;;;;13.90;7.45;;;;;;;2.57;100.00;100499.16;4942186;28;20054;-49
2021/01/06 00:38:28;;;;;;;14.00;6.93;;;;;;;2.49;100.00;100494.56;4944496;28;20055;-50
2021/01/06 00:40:54;;;;;;;15.93;7.60;;;;;;;2.50;100.00;100493.78;4946665;28;20062;-46
2021/01/06 00:43:21;;;;;;;12.05;7.75;;;;;;;2.68;100.00;100490.50;4943024;28;20419;-49
2021/01/06 00:45:48;;;;;;;13.00;7.80;;;;;;;2.88;100.00;100481.47;4945441;28;20054;-49
2021/01/06 00:48:14;;;;;;;11.68;7.75;;;;;;;2.74;100.00;100494.25;4948787;28;20166;-52
2021/01/06 00:50:42;;;;;;;11.20;6.68;;;;;;;2.67;100.00;100489.63;4944096;28;20058;-49
2021/01/06 00:53:24;;;;;;;11.60;6.65;;;;;;;2.43;100.00;100483.25;4945400;28;20047;-49
2021/01/06 00:55:51;;;;;;;12.48;6.20;;;;;;;2.50;100.00;100492.94;4946238;28;20054;-48
2021/01/06 00:58:19;;;;;;;9.10;6.38;;;;;;;2.50;100.00;100491.25;4942914;28;20093;-53
2021/01/06 01:00:46;;;;;;;11.35;5.90;;;;;;;2.62;100.00;100483.47;4945058;28;20059;-52
2021/01/06 01:03:13;;;;;;;12.23;6.15;;;;;;;2.59;100.00;100488.38;4944003;28;20050;-50
2021/01/06 01:05:39;;;;;;;10.48;5.22;;;;;;;2.66;100.00;100485.38;4944000;28;20094;-46
2021/01/06 01:08:08;;;;;;;12.73;5.22;;;;;;;2.63;100.00;100477.59;4946091;28;20055;-48
2021/01/06 01:10:45;;;;;;;10.00;5.88;;;;;;;2.50;100.00;100478.63;4942002;28;20122;-54
2021/01/06 01:13:23;;;;;;;12.50;5.28;;;;;;;2.37;100.00;100471.16;4943879;28;20054;-47
2021/01/06 01:15:53;;;;;;;11.25;5.75;;;;;;;2.47;100.00;100473.41;4945359;28;20119;-52
2021/01/06 01:18:23;;;;;;;13.02;5.35;;;;;;;2.37;100.00;100470.28;4942540;28;20050;-50
2021/01/06 01:20:55;;;;;;;8.85;4.85;;;;;;;2.22;100.00;100466.16;4950337;28;20386;-48
2021/01/06 01:23:24;;;;;;;7.55;4.65;;;;;;;2.50;100.00;100458.41;4942379;28;20042;-48
2021/01/06 01:25:52;;;;;;;10.65;4.63;;;;;;;2.20;100.00;100460.13;4945382;28;20580;-50
2021/01/06 01:28:21;;;;;;;9.77;5.10;;;;;;;2.24;100.00;100456.13;4942621;28;20520;-51
2021/01/06 01:30:49;;;;;;;11.73;5.13;;;;;;;2.26;100.00;100452.00;4944670;28;20142;-47
2021/01/06 01:33:20;;;;;;;9.05;4.43;;;;;;;2.59;100.00;100450.47;4943093;28;20158;-51
2021/01/06 01:35:46;;;;;;;7.30;3.63;;;;;;;2.59;100.00;100447.03;4944621;28;20577;-45
2021/01/06 01:38:22;;;;;;;7.20;4.15;;;;;;;2.30;100.00;100447.19;4943062;28;20070;-54
2021/01/06 01:40:57;;;;;;;7.85;3.60;;;;;;;2.27;100.00;100448.72;4945195;28;20052;-51
2021/01/06 01:43:23;;;;;;;7.43;3.90;;;;;;;2.13;100.00;100447.97;4942032;28;20904;-47
2021/01/06 01:45:50;;;;;;;7.60;3.80;;;;;;;2.37;100.00;100445.91;4945409;28;20083;-52
2021/01/06 01:48:28;;;;;;;5.70;3.75;;;;;;;2.53;100.00;100440.88;4947832;28;20047;-46
2021/01/06 01:50:59;;;;;;;4.43;3.22;;;;;;;2.38;100.00;100445.09;4945688;28;20133;-47
2021/01/06 01:53:40;;;;;;;4.80;3.30;;;;;;;2.30;100.00;100447.19;4941642;28;20102;-49
2021/01/06 01:56:11;;;;;;;4.90;3.05;;;;;;;2.31;100.00;100440.50;4946173;28;20055;-47
2021/01/06 01:58:41;;;;;;;5.18;3.33;;;;;;;2.28;100.00;100440.34;4942584;28;20102;-50
2021/01/06 02:01:09;;;;;;;4.53;3.17;;;;;;;2.53;100.00;100430.75;4944733;28;20496;-50
2021/01/06 02:03:48;;;;;;;5.93;3.38;;;;;;;2.65;100.00;100428.03;4941705;28;20123;-50
2021/01/06 02:06:27;;;;;;;6.60;3.15;;;;;;;2.35;100.00;100428.91;4942383;28;20047;-48
2021/01/06 02:09:00;;;;;;;5.78;2.80;;;;;;;2.50;100.00;100427.22;4948040;28;20050;-51
2021/01/06 02:11:40;;;;;;;4.53;3.28;;;;;;;2.31;100.00;100422.81;4941455;28;20051;-48
2021/01/06 02:14:35;;;;;;;5.70;2.90;;;;;;;2.58;100.00;100422.56;4940542;28;20138;-47
2021/01/06 02:17:11;;;;;;;5.22;2.70;;;;;;;2.41;100.00;100421.69;4944678;28;20050;-49
2021/01/06 02:19:43;;;;;;;5.93;2.42;;;;;;;2.51;100.00;100418.84;4942230;28;20052;-49
2021/01/06 02:22:19;;;;;;;4.97;2.60;;;;;;;2.44;100.00;100420.16;4942700;28;20265;-49
2021/01/06 02:24:50;;;;;;;3.88;2.55;;;;;;;2.63;100.00;100405.97;4944162;28;20043;-47
2021/01/06 02:27:19;;;;;;;4.72;2.47;;;;;;;2.53;100.00;100410.53;4942703;28;20070;-50
2021/01/06 02:29:46;;;;;;;3.72;2.70;;;;;;;2.51;100.00;100413.78;4943920;28;20052;-49
2021/01/06 02:32:13;;;;;;;4.63;2.40;;;;;;;2.46;100.00;100402.56;4946780;28;20055;-46
2021/01/06 02:34:42;;;;;;;2.40;2.20;;;;;;;2.33;100.00;100411.16;4948251;28;20118;-47
2021/01/06 02:37:09;;;;;;;3.35;2.20;;;;;;;2.48;100.00;100406.91;4948213;28;20051;-47
2021/01/06 02:39:36;;;;;;;3.75;2.50;;;;;;;2.43;100.00;100399.88;4945402;28;20047;-51
2021/01/06 02:42:04;;;;;;;3.33;2.20;;;;;;;2.58;100.00;100399.81;4948363;28;20051;-48
2021/01/06 02:44:30;;;;;;;2.58;1.90;;;;;;;2.46;100.00;100400.03;4943821;28;20055;-48
2021/01/06 02:46:57;;;;;;;2.35;1.90;;;;;;;2.35;100.00;100401.09;4946621;28;20109;-46
2021/01/06 02:49:25;;;;;;;3.35;2.17;;;;;;;2.32;100.00;100391.72;4945216;28;20635;-50
2021/01/06 02:52:02;;;;;;;3.00;2.25;;;;;;;2.55;100.00;100386.22;4948374;28;20051;-48
2021/01/06 02:54:34;;;;;;;3.20;1.92;;;;;;;2.63;100.00;100394.19;4944069;28;20043;-51
2021/01/06 02:57:01;;;;;;;2.55;1.73;;;;;;;2.40;100.00;100382.88;4946310;28;20062;-49
2021/01/06 02:59:33;;;;;;;2.55;1.70;;;;;;;2.35;100.00;100391.88;4944100;28;20572;-52
2021/01/06 03:02:00;;;;;;;4.00;1.80;;;;;;;2.24;100.00;100386.25;4946612;28;20059;-48
2021/01/06 03:04:32;;;;;;;4.68;2.25;;;;;;;2.48;100.00;100388.34;4944160;28;20398;-51
2021/01/06 03:07:03;;;;;;;3.97;2.03;;;;;;;2.36;100.00;100387.69;4945928;28;20085;-48
2021/01/06 03:09:33;;;;;;;2.88;2.17;;;;;;;2.29;100.00;100382.31;4943539;28;20812;-46
2021/01/06 03:12:04;;;;;;;2.25;1.70;;;;;;;2.58;100.00;100375.41;4946422;28;20055;-50
2021/01/06 03:14:32;;;;;;;2.47;1.70;;;;;;;2.77;100.00;100378.13;4943544;28;20111;-51
2021/01/06 03:17:01;;;;;;;2.63;1.60;;;;;;;2.72;100.00;100373.59;4946107;28;20058;-48
2021/01/06 03:19:30;;;;;;;3.03;1.73;;;;;;;2.47;100.00;100379.91;4944060;28;20055;-47
2021/01/06 03:22:00;;;;;;;2.22;1.73;;;;;;;2.45;100.00;100378.97;4943242;28;20129;-50
2021/01/06 03:24:32;;;;;;;1.63;1.27;;;;;;;2.56;100.00;100371.94;4943887;28;20576;-49
2021/01/06 03:27:00;;;;;;;2.53;1.80;;;;;;;2.41;100.00;100379.59;4945990;28;20445;-47
2021/01/06 03:29:32;;;;;;;2.33;1.67;;;;;;;2.38;100.00;100374.34;4943977;28;20047;-52
2021/01/06 03:32:05;;;;;;;3.22;1.83;;;;;;;2.37;100.00;100376.81;4946003;28;20153;-46
2021/01/06 03:34:56;;;;;;;1.85;1.45;;;;;;;2.36;100.00;100381.00;4943094;28;20071;-49
2021/01/06 03:37:29;;;;;;;3.03;1.25;;;;;;;2.31;100.00;100372.28;4944950;28;20051;-50
2021/01/06 03:40:08;;;;;;;1.63;1.50;;;;;;;2.39;100.00;100365.13;4944238;28;20047;-49
2021/01/06 03:42:35;;;;;;;2.80;1.40;;;;;;;2.41;100.00;100361.03;4943594;28;20067;-53
2021/01/06 03:45:03;;;;;;;2.22;1.35;;;;;;;2.28;100.00;100351.94;4946540;28;20058;-48
2021/01/06 03:47:35;;;;;;;2.00;1.45;;;;;;;2.27;100.00;100348.53;4943018;28;20121;-53
2021/01/06 03:50:05;;;;;;;2.22;1.67;;;;;;;2.12;100.00;100355.28;4945509;28;20062;-52
2021/01/06 03:52:51;;;;;;;1.73;1.42;;;;;;;2.15;100.00;100349.53;4943059;28;20123;-49
2021/01/06 03:55:47;;;;;;;2.60;1.40;;;;;;;2.33;100.00;100347.13;4944296;28;20589;-47
2021/01/06 03:58:25;;;;;;;3.85;1.80;;;;;;;2.39;100.00;100344.91;4942002;28;20047;-51
2021/01/06 04:00:56;;;;;;;1.67;1.38;;;;;;;2.20;100.00;100348.97;4947150;28;20046;-49
2021/01/06 04:03:32;;;;;;;2.00;1.58;;;;;;;2.38;100.00;100338.97;4949345;28;20847;-49
2021/01/06 04:06:01;;;;;;;3.28;2.17;;;;;;;2.20;100.00;100351.50;4942339;28;20164;-48
2021/01/06 04:08:40;;;;;;;2.58;1.60;;;;;;;2.34;100.00;100351.38;4943173;28;20051;-48
2021/01/06 04:11:08;;;;;;;1.48;1.33;;;;;;;2.27;100.00;100342.63;4945201;28;20132;-50
2021/01/06 04:13:34;;;;;;;2.60;1.33;;;;;;;2.13;100.00;100346.94;4943006;28;20047;-46
2021/01/06 04:16:01;;;;;;;2.33;1.25;;;;;;;2.59;100.00;100339.25;4946434;28;20051;-48
2021/01/06 04:18:27;;;;;;;2.22;1.08;;;;;;;2.38;100.00;100346.56;4945750;28;20055;-46
2021/01/06 04:20:53;;;;;;;1.77;1.13;;;;;;;2.40;100.00;100346.63;4950239;28;20054;-47
2021/01/06 04:23:20;;;;;;;3.08;1.58;;;;;;;2.23;100.00;100344.09;4944363;28;20118;-51
2021/01/06 04:25:49;;;;;;;2.20;1.33;;;;;;;2.14;100.00;100348.66;4946538;28;20047;-46
2021/01/06 04:28:18;;;;;;;1.45;1.02;;;;;;;2.10;100.00;100345.88;4945804;28;20150;-50
2021/01/06 04:30:48;;;;;;;3.20;2.30;;;;;;;2.28;100.00;100346.88;4945303;28;20106;-46
2021/01/06 04:33:37;;;;;;;1.73;1.00;;;;;;;1.98;100.00;100343.56;4949021;28;20054;-51
2021/01/06 04:36:07;;;;;;;1.38;1.08;;;;;;;2.34;100.00;100346.31;4941049;28;20059;-49
2021/01/06 04:38:37;;;;;;;1.13;0.95;;;;;;;2.16;100.00;100342.03;4943086;28;20055;-51
2021/01/06 04:41:43;;;;;;;1.33;1.10;;;;;;;1.89;100.00;100335.50;4946531;28;20058;-51
2021/01/06 04:44:46;;;;;;;0.90;0.70;;;;;;;2.06;100.00;100338.94;4942211;28;20115;-52
2021/01/06 04:47:37;;;;;;;2.33;0.63;;;;;;;1.98;100.00;100325.88;4944443;28;20062;-49
2021/01/06 04:50:31;;;;;;;0.65;0.65;;;;;;;1.91;100.00;100338.97;4944908;28;20054;-50
2021/01/06 04:53:30;;;;;;;1.38;0.90;;;;;;;1.71;100.00;100337.88;4940834;28;20091;-48
2021/01/06 04:56:03;;;;;;;1.13;0.80;;;;;;;1.84;100.00;100326.78;4944003;28;20522;-49
2021/01/06 04:58:51;;;;;;;1.20;0.80;;;;;;;2.03;100.00;100327.00;4943062;28;20043;-48
2021/01/06 05:01:48;;;;;;;1.00;0.90;;;;;;;1.90;100.00;100327.16;4942456;28;20057;-51
2021/01/06 05:04:53;;;;;;;2.53;1.50;;;;;;;2.16;100.00;100331.91;4941638;28;20465;-48
2021/01/06 05:07:25;;;;;;;0.98;0.73;;;;;;;2.12;100.00;100332.53;4936988;28;20047;-50
2021/01/06 05:10:10;;;;;;;0.68;0.63;;;;;;;2.15;100.00;100322.63;4947223;28;20109;-51
2021/01/06 05:12:44;;;;;;;0.95;0.80;;;;;;;2.13;100.00;100334.31;4943371;28;20332;-49
2021/01/06 05:15:11;;;;;;;1.42;0.90;;;;;;;1.90;100.00;100328.00;4948485;28;20489;-52
2021/01/06 05:17:40;;;;;;;1.25;0.98;;;;;;;2.25;100.00;100336.59;4945734;28;20470;-46
2021/01/06 05:20:09;;;;;;;1.08;0.80;;;;;;;2.19;100.00;100332.09;4951514;28;20098;-48
2021/01/06 05:22:36;;;;;;;0.80;0.57;;;;;;;2.16;100.00;100334.44;4948258;28;20047;-50
2021/01/06 05:25:05;;;;;;;1.90;0.80;;;;;;;1.94;100.00;100329.03;4946072;28;20615;-48
2021/01/06 05:27:38;;;;;;;0.98;0.63;;;;;;;2.23;100.00;100331.47;4942304;28;20055;-49
2021/01/06 05:30:20;;;;;;;1.10;0.70;;;;;;;2.17;100.00;100330.25;4946365;28;20050;-47
2021/01/06 05:32:47;;;;;;;0.60;0.60;;;;;;;2.00;100.00;100324.34;4948660;28;20639;-49
2021/01/06 05:35:18;;;;;;;1.13;0.80;;;;;;;2.09;100.00;100318.91;4943825;28;20087;-49
2021/01/06 05:38:03;;;;;;;0.85;0.50;;;;;;;1.76;100.00;100313.78;4945137;28;20355;-49
2021/01/06 05:40:33;;;;;;;2.00;0.40;;;;;;;1.86;100.00;100327.75;4943978;28;20039;-49
2021/01/06 05:43:04;;;;;;;1.25;0.70;;;;;;;1.73;100.00;100319.50;4944908;28;20140;-48
2021/01/06 05:45:42;;;;;;;1.08;0.73;;;;;;;1.69;100.00;100329.34;4942249;28;20048;-53
2021/01/06 05:48:21;;;;;;;1.27;0.47;;;;;;;1.69;100.00;100330.22;4944840;28;20134;-50
2021/01/06 05:51:13;;;;;;;1.08;0.60;;;;;;;1.54;100.00;100326.84;4945678;28;20127;-51
2021/01/06 05:53:57;;;;;;;1.17;0.80;;;;;;;1.54;100.00;100321.81;4943829;28;20446;-48
2021/01/06 05:56:42;;;;;;;1.35;0.90;;;;;;;1.57;100.00;100324.47;4937990;28;20054;-47
2021/01/06 05:59:24;;;;;;;2.45;1.50;;;;;;;1.92;100.00;100320.50;4941265;28;20102;-51
2021/01/06 06:02:04;;;;;;;2.25;1.20;;;;;;;1.67;100.00;100319.19;4946616;28;20387;-47
2021/01/06 06:04:56;;;;;;;3.15;1.27;;;;;;;1.73;100.00;100317.00;4947122;28;20541;-52
2021/01/06 06:07:34;;;;;;;1.67;1.23;;;;;;;1.81;100.00;100321.59;4944806;28;20124;-48
2021/01/06 06:10:19;;;;;;;1.85;1.13;;;;;;;1.62;100.00;100317.16;4945738;28;20051;-50
2021/01/06 06:12:55;;;;;;;2.47;1.30;;;;;;;1.64;100.00;100313.09;4949007;28;20074;-50
2021/01/06 06:15:40;;;;;;;1.95;1.25;;;;;;;1.77;100.00;100303.75;4947453;28;20102;-48
2021/01/06 06:18:25;;;;;;;4.60;1.23;;;;;;;1.77;100.00;100301.22;4944331;28;20421;-49
2021/01/06 06:20:58;;;;;;;3.03;1.60;;;;;;;1.65;100.00;100294.63;4950370;28;20169;-47
2021/01/06 06:23:48;;;;;;;3.33;1.25;;;;;;;1.68;100.00;100298.22;4946703;28;20097;-50
2021/01/06 06:26:41;;;;;;;2.40;1.48;;;;;;;1.63;100.00;100292.03;4946968;28;20063;-49
2021/01/06 06:29:14;;;;;;;4.70;2.13;;;;;;;1.69;100.00;100299.06;4944492;28;20097;-52
2021/01/06 06:31:49;;;;;;;3.20;1.70;;;;;;;1.76;100.00;100291.06;4949225;28;20568;-45
2021/01/06 06:34:24;;;;;;;3.72;1.80;;;;;;;1.50;100.00;100297.19;4953882;28;20137;-46
2021/01/06 06:37:02;;;;;;;2.95;1.60;;;;;;;1.94;100.00;100281.97;4947470;28;20063;-50
2021/01/06 06:39:38;;;;;;;2.50;1.60;;;;;;;1.49;100.00;100287.91;4965495;28;20569;-52
2021/01/06 06:42:26;;;;;;;1.83;1.20;;;;;;;1.52;100.00;100291.44;4964973;28;20805;-46
2021/01/06 06:44:53;;;;;;;1.80;1.20;;;;;;;1.42;100.00;100285.81;4960718;28;20055;-49
2021/01/06 06:47:27;;;;;;;1.23;1.10;;;;;;;1.87;100.00;100286.59;4962240;28;20047;-48
2021/01/06 06:50:18;;;;;;;1.05;0.80;;;;;;;1.43;100.00;100292.56;4962019;28;20085;-48
2021/01/06 06:53:13;;;;;;;3.75;1.60;;;;;;;1.56;100.00;100279.00;4955023;28;20047;-48
2021/01/06 06:55:55;;;;;;;1.38;1.27;;;;;;;1.74;100.00;100285.91;4950198;28;20612;-48
2021/01/06 06:58:42;;;;;;;2.10;1.35;;;;;;;1.68;100.00;100287.25;4950721;28;20125;-47
2021/01/06 07:01:09;;;;;;;;;;;;;;;1.35;100.00;100294.69;4952660;28;20047;-48
2021/01/06 07:03:39;;;;;;;2.92;1.85;;;;;;;1.31;100.00;100299.47;4950558;28;19973;-49
2021/01/06 07:06:15;;;;;;;3.35;2.22;;;;;;;1.27;100.00;100293.38;4952338;28;20449;-51
2021/01/06 07:08:49;;;;;;;2.28;2.08;;;;;;;1.42;100.00;100294.25;4952319;28;20146;-48
2021/01/06 07:11:36;;;;;;;5.45;2.55;;;;;;;1.37;100.00;100297.28;4949338;28;20469;-51
2021/01/06 07:14:14;;;;;;;3.40;2.17;;;;;;;1.77;100.00;100292.78;4950001;28;20060;-46
2021/01/06 07:16:57;;;;;;;4.05;2.30;;;;;;;1.61;100.00;100296.13;4955073;28;20802;-45
2021/01/06 07:19:30;;;;;;;3.88;2.40;;;;;;;2.07;100.00;100303.66;4940533;28;20047;-47
2021/01/06 07:22:20;;;;;;;2.30;2.10;;;;;;;2.28;100.00;100294.69;4953636;28;20102;-46
2021/01/06 07:24:53;;;;;;;3.33;2.55;;;;;;;1.83;100.00;100289.72;4951445;28;20055;-50
2021/01/06 07:27:20;;;;;;;3.53;2.72;;;;;;;1.61;100.00;100295.25;4945665;28;20144;-45
2021/01/06 07:29:50;;;;;;;2.85;2.53;;;;;;;1.64;100.00;100293.78;4947353;28;20051;-49
2021/01/06 07:32:18;;;;;;;4.95;2.92;;;;;;;1.65;100.00;100292.13;4946590;28;20110;-49
2021/01/06 07:34:57;;;;;;;3.03;2.38;;;;;;;2.02;100.00;100305.94;4949302;28;20043;-45
2021/01/06 07:37:33;;;;;;;3.78;1.90;;;;;;;1.92;100.00;100301.19;4947038;28;20051;-45
2021/01/06 07:40:15;;;;;;;2.65;2.15;;;;;;;1.79;100.00;100308.88;4948369;28;20057;-48
2021/01/06 07:42:53;;;;;;;3.55;2.35;;;;;;;1.76;100.00;100314.66;4949842;28;20070;-46
2021/01/06 07:45:29;;;;;;;2.55;1.92;;;;;;;1.78;100.00;100309.66;4949638;28;20118;-45
2021/01/06 07:48:04;;;;;;;3.30;2.08;;;;;;;1.60;100.00;100322.13;4947897;28;20054;-46
2021/01/06 07:50:34;;;;;;;2.63;1.73;;;;;;;1.68;100.00;100310.81;4949417;28;20118;-49
2021/01/06 07:53:10;;;;;;;3.53;2.35;;;;;;;1.87;100.00;100312.69;4953616;28;20058;-46
2021/01/06 07:55:52;;;;;;;2.53;1.90;;;;;;;1.99;100.00;100320.94;4951908;28;20457;-45
2021/01/06 07:58:37;;;;;;;3.92;1.85;;;;;;;1.89;100.00;100321.19;4945986;28;20130;-46
2021/01/06 08:01:17;;;;;;;2.47;1.85;;;;;;;1.83;100.00;100322.53;4949316;28;20058;-47
2021/01/06 08:03:56;;;;;;;3.97;2.35;;;;;;;1.79;100.00;100316.44;4947362;28;20051;-46
2021/01/06 08:06:42;;;;;;;3.13;2.70;;;;;;;2.21;100.00;100329.63;4949822;28;20055;-44
2021/01/06 08:09:08;;;;;;;4.53;2.53;;;;;;;2.19;99.52;100332.09;4942286;28;20046;-44
2021/01/06 08:11:45;;;;;;;3.75;2.47;;;;;;;1.91;100.00;100336.47;4944176;28;20513;-46
2021/01/06 08:14:21;;;;;;;4.65;2.72;;;;;;;1.55;100.00;100342.88;4950004;28;20110;-45
2021/01/06 08:16:52;;;;;;;4.07;2.75;;;;;;;1.86;100.00;100330.28;4946776;28;20083;-44
2021/01/06 08:19:40;;;;;;;2.13;1.92;;;;;;;1.99;100.00;100332.69;4944470;28;20411;-46
2021/01/06 08:22:19;;;;;;;3.03;2.08;;;;;;;2.09;100.00;100336.59;4954466;28;20046;-48
2021/01/06 08:25:04;;;;;;;3.65;2.30;;;;;;;1.83;100.00;100335.16;4961354;28;20798;-45
2021/01/06 08:27:38;;;;;;;2.30;1.93;;;;;;;1.82;100.00;100324.19;4946175;28;20621;-47
2021/01/06 08:30:28;;;;;;;6.32;5.43;;;;;;;2.19;100.00;100326.19;4953410;28;20146;-49
2021/01/06 08:33:06;;;;;;;8.07;6.32;;;;;;;2.10;100.00;100326.56;4955605;28;20113;-49
2021/01/06 08:35:37;;;;;;;4.63;3.95;;;;;;;2.53;98.99;100327.13;4951346;28;20047;-47
2021/01/06 08:38:24;;;;;;;5.03;3.85;;;;;;;2.35;98.97;100335.41;4950600;28;20058;-46
2021/01/06 08:40:51;;;;;;;4.07;2.75;;;;;;;2.34;97.96;100333.69;4953614;28;20077;-49
2021/01/06 08:43:17;;;;;;;5.78;4.07;;;;;;;2.17;98.61;100340.38;4955167;28;20057;-45
2021/01/06 08:45:57;;;;;;;5.35;4.82;;;;;;;2.04;100.00;100339.72;4944795;28;20052;-45
2021/01/06 08:48:39;;;;;;;7.90;6.50;;;;;;;2.04;99.46;100336.34;4952865;28;20049;-49
2021/01/06 08:51:12;;;;;;;14.98;9.15;;;;;;;2.35;99.76;100328.72;4947222;28;20544;-47
2021/01/06 08:53:58;;;;;;;29.25;14.02;;;;;;;2.19;100.00;100331.22;4951139;28;20050;-47
2021/01/06 08:56:29;;;;;;;15.90;9.60;;;;;;;2.06;100.00;100331.34;4946789;28;20055;-49
2021/01/06 08:58:57;;;;;;;18.80;10.80;;;;;;;2.41;100.00;100330.72;4946211;28;20121;-47
2021/01/06 09:01:32;;;;;;;28.33;15.38;;;;;;;2.49;99.03;100326.91;4953033;28;20051;-47
2021/01/06 09:04:17;;;;;;;65.30;34.28;;;;;;;2.75;98.40;100330.78;4943856;28;20105;-44
2021/01/06 09:07:08;;;;;;;31.30;23.15;;;;;;;2.65;97.39;100323.53;4954096;28;20507;-48
2021/01/06 09:09:52;;;;;;;13.95;11.38;;;;;;;2.63;96.65;100333.53;4954356;28;20570;-48
2021/01/06 09:12:32;;;;;;;19.50;17.45;;;;;;;2.38;99.40;100331.41;4951484;28;20058;-46
2021/01/06 09:14:59;;;;;;;4.78;4.30;;;;;;;2.45;97.57;100330.94;4948928;28;20117;-47
2021/01/06 09:17:36;;;;;;;11.48;10.68;;;;;;;2.65;99.00;100337.03;4949068;28;20098;-49
2021/01/06 09:20:12;;;;;;;6.25;5.78;;;;;;;2.57;98.21;100330.69;4950685;28;20161;-46
2021/01/06 09:22:43;;;;;;;8.70;7.60;;;;;;;2.26;98.41;100334.13;4948685;28;20052;-45
2021/01/06 09:25:24;;;;;;;5.70;5.15;;;;;;;2.40;98.35;100334.88;4940977;28;20086;-46
2021/01/06 09:27:52;;;;;;;5.05;4.65;;;;;;;2.50;97.74;100338.78;4945482;28;20089;-47
2021/01/06 09:30:19;;;;;;;5.07;4.63;;;;;;;2.18;97.79;100339.59;4940724;28;20406;-45
2021/01/06 09:32:47;;;;;;;4.72;4.43;;;;;;;2.50;97.32;100342.16;4944586;28;20059;-48
2021/01/06 09:35:18;;;;;;;7.00;6.40;;;;;;;2.56;98.43;100339.06;4939351;28;20055;-47
2021/01/06 09:37:59;;;;;;;5.72;5.32;;;;;;;2.54;98.47;100339.00;4944098;28;20048;-46
2021/01/06 09:40:31;;;;;;;5.20;4.80;;;;;;;2.47;98.37;100336.06;4941661;28;20051;-47
2021/01/06 09:43:05;;;;;;;5.63;5.22;;;;;;;2.62;98.67;100325.88;4946106;28;20061;-44
2021/01/06 09:45:33;;;;;;;7.20;6.60;;;;;;;2.39;98.78;100333.13;4947640;28;20146;-47
2021/01/06 09:48:05;;;;;;;5.68;5.28;;;;;;;2.78;97.15;100329.28;4951836;28;20059;-45
2021/01/06 09:50:43;;;;;;;6.60;6.07;;;;;;;2.85;96.92;100330.44;4947694;28;20590;-46
2021/01/06 09:53:14;;;;;;;19.60;17.80;;;;;;;2.62;95.82;100336.00;4951051;28;20508;-49
2021/01/06 09:55:44;;;;;;;8.65;7.85;;;;;;;2.52;99.17;100327.06;4949801;28;20115;-46
2021/01/06 09:58:37;;;;;;;4.28;3.25;;;;;;;2.51;98.31;100337.97;4953266;28;20047;-48
2021/01/06 10:01:24;;;;;;;6.53;5.88;;;;;;;2.80;95.77;100319.22;4951546;28;20424;-47
2021/01/06 10:03:53;;;;;;;8.27;7.40;;;;;;;2.49;96.81;100321.84;4952186;28;20051;-44
2021/01/06 10:06:37;;;;;;;7.55;6.95;;;;;;;2.76;97.06;100323.25;4948603;28;20055;-49
2021/01/06 10:09:37;;;;;;;3.83;3.53;;;;;;;2.60;97.49;100312.31;4946084;28;20046;-44
2021/01/06 10:12:19;;;;;;;2.42;2.22;;;;;;;2.52;97.78;100307.72;4946072;28;20070;-46
2021/01/06 10:14:58;;;;;;;1.92;1.83;;;;;;;2.63;97.43;100309.91;4951007;28;20694;-46
2021/01/06 10:17:31;;;;;;;2.10;1.98;;;;;;;2.73;98.30;100300.38;4940447;28;20455;-46
2021/01/06 10:20:13;;;;;;;1.98;1.80;;;;;;;2.99;95.81;100305.84;4951959;28;20055;-47
2021/01/06 10:22:51;;;;;;;2.28;1.80;;;;;;;3.00;94.81;100300.00;4954076;28;20043;-45
2021/01/06 10:25:55;;;;;;;2.38;1.92;;;;;;;2.61;96.07;100288.78;4959245;28;20374;-44
2021/01/06 10:28:22;;;;;;;2.13;1.80;;;;;;;2.95;95.56;100292.19;4961090;28;20050;-44
2021/01/06 10:31:08;;;;;;;1.42;1.33;;;;;;;3.10;95.02;100297.16;4960688;28;20051;-45
2021/01/06 10:33:55;;;;;;;7.25;4.32;;;;;;;2.88;97.35;100296.88;4960344;28;20047;-43
2021/01/06 10:36:46;;;;;;;3.10;2.80;;;;;;;2.44;98.41;100290.41;4957657;28;20137;-47
2021/01/06 10:39:22;;;;;;;2.53;2.30;;;;;;;2.60;98.07;100294.63;4965838;28;20083;-46
2021/01/06 10:42:00;;;;;;;5.75;2.83;;;;;;;2.77;95.45;100293.78;4966562;28;20054;-44
2021/01/06 10:44:32;;;;;;;6.13;4.10;;;;;;;2.64;97.16;100283.88;4966561;28;20135;-44
2021/01/06 10:47:37;;;;;;;6.28;4.15;;;;;;;2.68;97.35;100291.69;4964791;28;20496;-49
2021/01/06 10:50:22;;;;;;;6.63;4.05;;;;;;;2.71;96.76;100283.38;4964985;28;20046;-45
2021/01/06 10:52:57;;;;;;;5.60;3.90;;;;;;;2.52;97.17;100287.50;4966924;28;20081;-45
2021/01/06 10:55:48;;;;;;;3.55;2.40;;;;;;;3.11;95.37;100283.69;4952797;28;20090;-43
2021/01/06 10:58:24;;;;;;;2.60;1.85;;;;;;;2.75;96.46;100276.03;4946459;28;20055;-43
2021/01/06 11:00:59;;;;;;;1.88;1.77;;;;;;;2.79;97.11;100272.00;4951624;28;20599;-43
2021/01/06 11:03:54;;;;;;;2.03;1.63;;;;;;;2.83;96.18;100270.50;4944907;28;20518;-45
2021/01/06 11:06:35;;;;;;;1.40;1.30;;;;;;;2.73;97.48;100259.94;4947770;28;20076;-48
2021/01/06 11:09:40;;;;;;;1.38;1.25;;;;;;;3.04;95.63;100274.06;4942901;28;20086;-44
2021/01/06 11:12:30;;;;;;;1.63;1.40;;;;;;;2.93;95.34;100267.63;4943101;28;20097;-43
2021/01/06 11:15:12;;;;;;;4.80;3.25;;;;;;;3.03;94.52;100262.22;4946969;28;20125;-44
2021/01/06 11:17:42;;;;;;;11.63;5.97;;;;;;;2.98;97.54;100266.19;4940926;28;20040;-45
2021/01/06 11:20:35;;;;;;;3.88;2.60;;;;;;;2.66;98.61;100267.13;4947862;28;20144;-45
2021/01/06 11:23:27;;;;;;;10.50;6.05;;;;;;;2.94;97.82;100266.81;4945560;28;20047;-45
2021/01/06 11:26:20;;;;;;;4.28;2.58;;;;;;;2.98;96.14;100261.13;4949075;28;20060;-43
2021/01/06 11:29:11;;;;;;;5.63;4.00;;;;;;;2.79;96.73;100249.25;4947868;28;20071;-44
2021/01/06 11:31:41;;;;;;;6.05;5.47;;;;;;;3.10;95.89;100255.78;4945533;28;20040;-47
2021/01/06 11:34:09;;;;;;;6.82;6.13;;;;;;;2.90;97.70;100247.22;4947482;28;20430;-46
2021/01/06 11:36:46;;;;;;;5.53;4.75;;;;;;;3.33;95.79;100250.19;4944794;28;20102;-44
2021/01/06 11:39:38;;;;;;;1.88;1.75;;;;;;;3.17;95.67;100235.06;4946662;28;20327;-45
2021/01/06 11:42:20;;;;;;;1.50;1.40;;;;;;;2.90;97.07;100235.47;4946561;28;20054;-44
2021/01/06 11:45:18;;;;;;;1.50;1.40;;;;;;;3.28;95.43;100236.44;4947863;28;20565;-47
2021/01/06 11:47:51;;;;;;;1.60;1.02;;;;;;;3.32;95.24;100234.13;4947233;28;20097;-47
2021/01/06 11:50:36;;;;;;;1.27;1.15;;;;;;;3.35;93.69;100232.53;4946015;28;20059;-45
2021/01/06 11:53:24;;;;;;;1.87;0.90;;;;;;;3.36;94.14;100225.00;4941929;28;20071;-45
2021/01/06 11:56:15;;;;;;;1.05;0.95;;;;;;;3.48;93.04;100225.59;4948552;28;20051;-47
2021/01/06 11:59:20;;;;;;;2.83;1.15;;;;;;;2.83;93.64;100218.28;4945881;28;20132;-43
2021/01/06 12:02:12;;;;;;;1.20;1.10;;;;;;;3.27;93.43;100219.50;4947253;28;20036;-50
2021/01/06 12:05:13;;;;;;;1.10;1.00;;;;;;;3.30;92.27;100218.00;4944623;28;20051;-45
2021/01/06 12:08:11;;;;;;;1.15;0.75;;;;;;;3.42;89.91;100209.22;4945248;28;20474;-48
2021/01/06 12:11:03;;;;;;;1.10;1.00;;;;;;;3.02;91.66;100204.84;4945237;28;20529;-45